Time;durP1;ratioP1;P1;durP2;ratioP2;P2;SDS_P1;SDS_P2;PMS_P1;PMS_P2;Temp;Humidity;BMP_temperature;BMP_pressure;BME280_temperature;BME280_humidity;BME280_pressure;Samples;Min_cycle;Max_cycle;Signal;HPM_P1;HPM_P2
2023/01/30 00:00:53;;;;;;;43.30;22.00;;;;;;;5.80;80.86;101779.84;5057989;28;20075;-90
2023/01/30 00:03:20;;;;;;;40.05;21.30;;;;;;;5.67;81.55;101765.94;5060720;28;20035;-90
2023/01/30 00:05:45;;;;;;;43.53;20.95;;;;;;;5.70;81.59;101752.81;5069406;28;20047;-91
2023/01/30 00:08:10;;;;;;;38.72;21.58;;;;;;;5.74;82.00;101759.78;5069036;28;20028;-91
2023/01/30 00:10:36;;;;;;;42.85;22.27;;;;;;;5.82;81.73;101752.72;5087617;28;20059;-90
2023/01/30 00:13:01;;;;;;;38.63;19.88;;;;;;;5.89;81.50;101762.31;5067894;28;20028;-90
2023/01/30 00:15:26;;;;;;;41.90;22.05;;;;;;;5.85;81.86;101759.72;5068324;28;20543;-91
2023/01/30 00:17:52;;;;;;;37.90;21.08;;;;;;;5.88;81.69;101757.06;5061723;28;20024;-90
2023/01/30 00:20:18;;;;;;;37.40;21.33;;;;;;;5.91;82.18;101736.03;5060300;28;20101;-91
2023/01/30 00:22:43;;;;;;;40.70;20.65;;;;;;;5.93;81.77;101738.72;5065919;28;20684;-90
2023/01/30 00:25:09;;;;;;;42.00;20.88;;;;;;;5.99;81.60;101746.53;5059513;28;20115;-90
2023/01/30 00:27:34;;;;;;;36.50;22.75;;;;;;;6.20;81.02;101743.78;5079174;28;20380;-91
2023/01/30 00:30:01;;;;;;;41.33;21.40;;;;;;;6.14;80.85;101731.53;5079176;28;20070;-90
2023/01/30 00:32:26;;;;;;;37.05;22.48;;;;;;;6.16;80.88;101742.06;5077004;28;20081;-91
2023/01/30 00:34:52;;;;;;;41.05;22.95;;;;;;;6.22;80.70;101730.63;5080581;28;20424;-91
2023/01/30 00:37:17;;;;;;;39.25;19.73;;;;;;;6.23;80.48;101720.09;5069254;28;20185;-90
2023/01/30 00:39:42;;;;;;;35.70;19.67;;;;;;;6.42;79.92;101731.31;5071924;28;20020;-90
2023/01/30 00:47:36;;;;;;;37.72;19.90;;;;;;;6.17;81.40;101727.16;5088450;28;20561;-90
2023/01/30 00:50:02;;;;;;;40.25;20.98;;;;;;;6.20;81.69;101732.38;5085758;28;20028;-90
2023/01/30 00:52:27;;;;;;;40.00;23.67;;;;;;;6.26;81.57;101729.72;5065239;28;20028;-90
2023/01/30 00:54:53;;;;;;;41.72;23.63;;;;;;;6.10;81.41;101713.19;5071874;28;20023;-90
2023/01/30 00:57:18;;;;;;;45.00;21.40;;;;;;;6.21;81.47;101718.38;5065767;28;20039;-91
2023/01/30 00:59:43;;;;;;;42.60;22.38;;;;;;;6.17;81.85;101717.53;5069946;28;20063;-90
2023/01/30 01:02:08;;;;;;;40.88;20.50;;;;;;;6.21;81.87;101723.63;5069541;28;20312;-90
2023/01/30 01:04:42;;;;;;;38.92;20.33;;;;;;;6.22;81.96;101717.50;5089330;28;20024;-91
2023/01/30 01:07:08;;;;;;;35.80;20.45;;;;;;;6.32;81.40;101716.53;5089353;28;20390;-90
2023/01/30 01:09:33;;;;;;;36.15;20.75;;;;;;;6.41;81.13;101702.44;5070601;28;20035;-90
2023/01/30 01:11:59;;;;;;;41.38;21.25;;;;;;;6.45;81.19;101710.28;5080664;28;20064;-91
2023/01/30 01:14:24;;;;;;;36.92;18.55;;;;;;;6.47;80.99;101711.13;5060495;28;20028;-91
2023/01/30 01:16:49;;;;;;;43.75;22.17;;;;;;;6.45;80.95;101709.41;5078025;28;20028;-91
2023/01/30 01:19:15;;;;;;;39.63;19.98;;;;;;;6.55;80.83;101698.81;5078556;28;20077;-91
2023/01/30 01:21:40;;;;;;;36.67;20.23;;;;;;;6.50;80.60;101691.84;5079298;28;20415;-90
2023/01/30 01:24:06;;;;;;;36.42;20.42;;;;;;;6.49;80.68;101693.63;5060492;28;20383;-91
2023/01/30 01:26:32;;;;;;;36.00;19.27;;;;;;;6.51;80.59;101688.34;5085491;28;20071;-91
2023/01/30 01:28:58;;;;;;;35.28;19.08;;;;;;;6.63;80.39;101691.72;5067225;28;20612;-91
2023/01/30 01:31:24;;;;;;;37.30;20.60;;;;;;;6.63;80.53;101691.72;5059726;28;20058;-90
2023/01/30 01:33:49;;;;;;;38.33;19.73;;;;;;;6.74;80.50;101685.47;5083506;28;20598;-91
2023/01/30 01:36:15;;;;;;;35.33;19.10;;;;;;;6.61;80.71;101676.84;5088068;28;20053;-91
2023/01/30 01:38:41;;;;;;;38.53;21.27;;;;;;;6.55;80.48;101661.16;5066537;28;20025;-91
2023/01/30 01:41:08;;;;;;;37.67;18.83;;;;;;;6.70;80.73;101670.63;5068842;28;20558;-91
2023/01/30 01:43:37;;;;;;;34.85;19.25;;;;;;;6.74;80.65;101673.19;5063811;28;20028;-90
2023/01/30 01:46:11;;;;;;;36.08;20.63;;;;;;;6.79;80.17;101668.75;5060606;28;20056;-90
2023/01/30 01:48:47;;;;;;;34.60;19.00;;;;;;;6.94;79.87;101672.97;5087163;28;20040;-90
2023/01/30 01:51:37;;;;;;;35.42;19.90;;;;;;;6.95;80.51;101665.94;5084823;28;20433;-90
2023/01/30 01:54:10;;;;;;;35.75;18.58;;;;;;;6.84;80.14;101634.53;5084941;28;20525;-91
2023/01/30 01:56:41;;;;;;;32.53;18.65;;;;;;;6.87;80.33;101634.53;5073726;28;20024;-90
2023/01/30 01:59:15;;;;;;;37.67;21.02;;;;;;;6.92;80.21;101635.31;5064305;28;20032;-90
2023/01/30 02:01:40;;;;;;;39.33;20.50;;;;;;;6.95;80.07;101634.41;5064610;28;20028;-91
2023/01/30 02:04:09;;;;;;;36.42;19.23;;;;;;;6.96;80.02;101628.28;5064223;28;20034;-91
2023/01/30 02:06:38;;;;;;;33.70;19.20;;;;;;;6.98;80.19;101635.25;5069695;28;20111;-90
2023/01/30 02:09:07;;;;;;;37.58;20.35;;;;;;;6.98;80.11;101640.50;5084078;28;20035;-90
2023/01/30 02:11:44;;;;;;;42.38;23.25;;;;;;;7.07;80.30;101631.63;5070277;28;20379;-91
2023/01/30 02:14:10;;;;;;;38.75;20.88;;;;;;;7.12;80.10;101640.31;5071987;28;20497;-90
2023/01/30 02:16:36;;;;;;;38.15;20.17;;;;;;;7.07;79.95;101629.88;5069729;28;20026;-91
2023/01/30 02:19:07;;;;;;;34.20;18.83;;;;;;;6.99;80.50;101615.06;5068571;28;20119;-91
2023/01/30 02:21:59;;;;;;;36.33;18.73;;;;;;;7.06;80.63;101617.63;5085861;28;20514;-91
2023/01/30 02:24:46;;;;;;;44.45;21.25;;;;;;;7.15;80.36;101620.13;5068101;28;20107;-91
2023/01/30 02:27:47;;;;;;;38.50;21.08;;;;;;;7.15;80.94;101611.38;5069942;28;20063;-89
2023/01/30 02:30:36;;;;;;;43.03;19.52;;;;;;;7.18;80.59;101610.44;5033261;28;20051;-90
2023/01/30 02:33:14;;;;;;;30.88;18.60;;;;;;;7.16;80.71;101600.81;5086380;28;20028;-90
2023/01/30 02:36:00;;;;;;;38.47;20.58;;;;;;;7.15;80.79;101595.59;5065790;28;20055;-91
2023/01/30 02:38:46;;;;;;;33.88;19.27;;;;;;;7.18;80.63;101586.78;5084717;28;20302;-90
2023/01/30 02:41:23;;;;;;;40.30;21.30;;;;;;;7.20;80.68;101603.41;5087542;28;20050;-90
2023/01/30 02:44:02;;;;;;;33.53;18.80;;;;;;;7.09;81.03;101591.28;5087827;28;20028;-89
2023/01/30 02:46:45;;;;;;;38.42;20.95;;;;;;;7.17;80.80;101591.16;5087135;28;20123;-89
2023/01/30 02:49:21;;;;;;;36.90;20.52;;;;;;;7.14;80.74;101593.88;5088845;28;20059;-90
2023/01/30 02:51:50;;;;;;;37.78;19.77;;;;;;;7.13;80.66;101587.72;5088159;28;20036;-90
2023/01/30 02:54:15;;;;;;;34.08;19.00;;;;;;;7.12;80.76;101577.22;5070276;28;20023;-90
2023/01/30 02:56:46;;;;;;;35.63;19.90;;;;;;;7.26;80.95;101601.56;5086521;28;20031;-89
2023/01/30 02:59:15;;;;;;;38.55;19.10;;;;;;;7.24;80.73;101597.22;5090500;28;20475;-90
2023/01/30 03:01:46;;;;;;;31.55;18.10;;;;;;;7.21;81.59;101600.75;5083380;28;20028;-89
2023/01/30 03:04:36;;;;;;;38.80;20.15;;;;;;;7.23;81.76;101588.47;5067480;28;20483;-90
2023/01/30 03:07:38;;;;;;;38.08;20.90;;;;;;;7.24;81.74;101590.22;5085000;28;20483;-89
2023/01/30 03:10:28;;;;;;;38.72;21.30;;;;;;;7.17;81.83;101578.03;5084560;28;20032;-90
2023/01/30 03:13:15;;;;;;;38.15;20.27;;;;;;;7.21;82.75;101579.72;5085703;28;20023;-90
2023/01/30 03:15:52;;;;;;;31.38;17.85;;;;;;;7.23;82.70;101571.78;5067954;28;20130;-89
2023/01/30 03:18:19;;;;;;;35.90;19.70;;;;;;;7.09;83.19;101554.47;5087327;28;20016;-89
2023/01/30 03:20:45;;;;;;;47.38;22.27;;;;;;;7.06;83.59;101561.53;5084719;28;20465;-90
2023/01/30 03:23:11;;;;;;;36.97;20.25;;;;;;;7.09;83.63;101570.25;5087696;28;20488;-89
2023/01/30 03:25:40;;;;;;;38.50;21.25;;;;;;;6.92;83.85;101540.69;5085676;28;20051;-89
2023/01/30 03:28:07;;;;;;;40.17;20.15;;;;;;;7.04;84.19;101558.94;5087788;28;20407;-90
2023/01/30 03:30:32;;;;;;;38.45;19.95;;;;;;;7.06;84.44;101549.25;5067887;28;20421;-89
2023/01/30 03:32:57;;;;;;;42.13;21.25;;;;;;;7.06;84.88;101557.16;5068364;28;20108;-89
2023/01/30 03:35:23;;;;;;;43.95;21.52;;;;;;;7.04;84.40;101550.16;5069492;28;20039;-89
2023/01/30 03:37:48;;;;;;;37.80;20.45;;;;;;;6.96;84.68;101541.53;5086126;28;20498;-89
2023/01/30 03:40:15;;;;;;;42.72;21.75;;;;;;;7.11;84.87;101552.69;5068259;28;20025;-90
2023/01/30 03:42:41;;;;;;;43.25;20.60;;;;;;;7.04;85.16;101535.28;5082450;28;20035;-89
2023/01/30 03:45:07;;;;;;;43.10;22.95;;;;;;;7.03;85.52;101548.44;5067939;28;20032;-90
2023/01/30 03:47:33;;;;;;;39.22;21.08;;;;;;;7.08;85.62;101547.47;5069575;28;20024;-90
2023/01/30 03:49:58;;;;;;;38.75;21.58;;;;;;;7.05;85.04;101541.41;5088191;28;20027;-89
2023/01/30 03:52:23;;;;;;;33.25;19.20;;;;;;;7.07;85.12;101534.34;5084068;28;20036;-90
2023/01/30 03:54:48;;;;;;;41.58;22.63;;;;;;;7.01;85.21;101524.78;5087387;28;20032;-90
2023/01/30 03:57:14;;;;;;;47.22;25.67;;;;;;;7.01;86.04;101540.56;5066741;28;20024;-90
2023/01/30 03:59:39;;;;;;;43.00;21.77;;;;;;;7.03;85.70;101533.50;5068462;28;20024;-90
2023/01/30 04:02:05;;;;;;;39.92;22.35;;;;;;;7.01;85.53;101513.41;5062726;28;20028;-90
2023/01/30 04:04:30;;;;;;;33.30;19.48;;;;;;;7.06;85.42;101536.13;5062225;28;20059;-89
2023/01/30 04:06:55;;;;;;;43.45;22.55;;;;;;;7.17;85.26;101546.47;5060554;28;20454;-90
2023/01/30 04:09:21;;;;;;;36.58;19.70;;;;;;;7.13;85.45;101535.16;5082412;28;20149;-89
2023/01/30 04:11:47;;;;;;;38.13;20.90;;;;;;;7.11;85.63;101534.28;5082083;28;20053;-90
2023/01/30 04:14:12;;;;;;;32.67;18.90;;;;;;;7.28;84.79;101560.34;5065189;28;20024;-90
2023/01/30 04:16:37;;;;;;;36.13;21.33;;;;;;;7.18;84.98;101544.69;5068779;28;20037;-90
2023/01/30 04:19:02;;;;;;;38.05;19.63;;;;;;;7.18;85.05;101539.44;5064107;28;20020;-91
2023/01/30 04:21:28;;;;;;;36.15;19.63;;;;;;;7.25;85.13;101549.84;5068238;28;20566;-90
2023/01/30 04:23:53;;;;;;;38.78;21.60;;;;;;;7.19;85.17;101531.56;5086308;28;20028;-90
2023/01/30 04:26:18;;;;;;;35.25;20.45;;;;;;;7.29;85.17;101532.28;5068463;28;20042;-90
2023/01/30 04:28:44;;;;;;;33.15;19.25;;;;;;;7.38;84.77;101546.16;5082760;28;20510;-90
2023/01/30 04:31:10;;;;;;;30.27;16.75;;;;;;;7.34;85.08;101531.31;5064016;28;20023;-90
2023/01/30 04:33:35;;;;;;;29.02;17.08;;;;;;;7.35;85.09;101527.78;5069996;28;20077;-90
2023/01/30 04:36:02;;;;;;;34.67;18.40;;;;;;;7.38;84.87;101529.50;5071154;28;20028;-90
2023/01/30 04:38:30;;;;;;;29.23;17.52;;;;;;;7.41;85.02;101516.28;5067844;28;20150;-90
2023/01/30 04:40:56;;;;;;;29.73;17.35;;;;;;;7.46;84.92;101521.47;5070983;28;20036;-90
2023/01/30 04:43:24;;;;;;;31.42;15.82;;;;;;;7.52;84.88;101526.66;5066322;28;20404;-90
2023/01/30 04:45:50;;;;;;;28.48;15.43;;;;;;;7.64;84.53;101542.22;5083807;28;20044;-90
2023/01/30 04:48:16;;;;;;;28.42;15.40;;;;;;;7.65;84.79;101546.59;5067645;28;20039;-90
2023/01/30 04:50:43;;;;;;;27.05;14.07;;;;;;;7.67;84.64;101548.31;5063657;28;20475;-91
2023/01/30 04:53:09;;;;;;;22.63;14.50;;;;;;;7.66;84.72;101538.69;5071660;28;20039;-90
2023/01/30 04:55:34;;;;;;;24.88;14.32;;;;;;;7.72;84.50;101537.69;5084125;28;20024;-89
2023/01/30 04:58:00;;;;;;;19.75;12.05;;;;;;;7.79;84.00;101546.38;5086207;28;20027;-90
2023/01/30 05:00:25;;;;;;;22.55;12.18;;;;;;;7.74;84.15;101532.41;5065483;28;20506;-90
2023/01/30 05:02:52;;;;;;;24.67;11.15;;;;;;;7.80;84.26;101542.84;5082098;28;20032;-90
2023/01/30 05:05:17;;;;;;;23.38;10.98;;;;;;;7.87;84.06;101547.94;5084932;28;20534;-89
2023/01/30 05:07:42;;;;;;;22.27;11.63;;;;;;;7.85;84.47;101551.53;5083137;28;20036;-89
2023/01/30 05:10:08;;;;;;;17.00;9.88;;;;;;;7.87;84.20;101539.19;5061121;28;20163;-90
2023/01/30 05:12:34;;;;;;;18.48;11.02;;;;;;;7.80;84.60;101543.72;5084004;28;20024;-89
2023/01/30 05:14:59;;;;;;;21.98;9.25;;;;;;;7.97;84.04;101560.94;5058300;28;20049;-90
2023/01/30 05:17:24;;;;;;;18.42;10.38;;;;;;;7.97;83.90;101550.41;5086889;28;20031;-89
2023/01/30 05:19:49;;;;;;;16.48;8.93;;;;;;;7.98;83.78;101539.03;5089880;28;20103;-89
2023/01/30 05:22:15;;;;;;;20.15;9.93;;;;;;;8.03;83.70;101555.59;5077375;28;20059;-90
2023/01/30 05:24:40;;;;;;;16.00;8.50;;;;;;;8.02;83.47;101536.31;5071939;28;20084;-90
2023/01/30 05:27:05;;;;;;;22.10;8.57;;;;;;;8.07;83.34;101550.25;5068948;28;20471;-89
2023/01/30 05:29:31;;;;;;;17.58;8.38;;;;;;;8.08;83.27;101538.81;5066372;28;20471;-90
2023/01/30 05:31:56;;;;;;;17.35;8.55;;;;;;;8.04;83.26;101541.53;5082883;28;20112;-90
2023/01/30 05:34:21;;;;;;;20.90;7.55;;;;;;;8.06;83.04;101534.47;5066776;28;20023;-89
2023/01/30 05:36:47;;;;;;;17.95;7.93;;;;;;;8.07;82.79;101531.81;5084971;28;20433;-89
2023/01/30 05:39:12;;;;;;;15.30;6.47;;;;;;;8.11;82.47;101538.75;5090622;28;20054;-90
2023/01/30 05:41:37;;;;;;;14.57;5.63;;;;;;;8.13;82.29;101544.00;5070452;28;20659;-90
2023/01/30 05:44:03;;;;;;;15.93;6.28;;;;;;;8.11;82.66;101536.13;5057557;28;20510;-89
2023/01/30 05:46:28;;;;;;;11.60;6.05;;;;;;;8.11;82.27;101527.34;5088341;28;20040;-90
2023/01/30 05:48:54;;;;;;;18.27;6.57;;;;;;;8.08;82.23;101519.50;5071431;28;20563;-90
2023/01/30 05:51:22;;;;;;;15.00;6.15;;;;;;;8.11;82.05;101537.88;5070211;28;20147;-90
2023/01/30 05:53:48;;;;;;;14.80;6.18;;;;;;;8.10;81.82;101536.13;5070647;28;20028;-90
2023/01/30 05:56:14;;;;;;;13.02;5.15;;;;;;;8.14;81.68;101519.38;5089206;28;20032;-90
2023/01/30 05:58:39;;;;;;;13.50;5.95;;;;;;;8.19;81.54;101533.34;5071046;28;20024;-89
2023/01/30 06:01:08;;;;;;;14.15;5.07;;;;;;;8.22;81.46;101546.44;5065870;28;20032;-90
2023/01/30 06:03:34;;;;;;;12.82;5.15;;;;;;;8.31;81.56;101569.13;5071381;28;20807;-90
2023/01/30 06:06:05;;;;;;;11.20;5.13;;;;;;;8.19;81.33;101552.63;5087614;28;20028;-89
2023/01/30 06:08:31;;;;;;;10.82;4.40;;;;;;;8.25;81.03;101556.03;5071189;28;20032;-89
2023/01/30 06:11:05;;;;;;;13.48;4.75;;;;;;;8.27;81.03;101544.59;5085632;28;20403;-89
2023/01/30 06:13:30;;;;;;;9.82;4.57;;;;;;;8.28;80.85;101559.50;5068855;28;20089;-90
2023/01/30 06:15:56;;;;;;;10.50;4.50;;;;;;;8.23;80.76;101557.84;5083301;28;20446;-90
2023/01/30 06:18:21;;;;;;;8.95;3.97;;;;;;;8.26;80.50;101563.94;5070157;28;20036;-89
2023/01/30 06:20:48;;;;;;;14.57;4.25;;;;;;;8.30;80.43;101575.25;5091423;28;20099;-90
2023/01/30 06:23:14;;;;;;;12.27;4.57;;;;;;;8.28;80.30;101575.31;5077967;28;20483;-91
2023/01/30 06:25:47;;;;;;;13.57;4.30;;;;;;;8.34;80.29;101588.34;5069131;28;20069;-90
2023/01/30 06:28:14;;;;;;;13.75;3.85;;;;;;;8.25;79.78;101570.09;5064916;28;20024;-90
2023/01/30 06:30:40;;;;;;;11.60;4.65;;;;;;;8.25;79.42;101583.25;5068396;28;20674;-91
2023/01/30 06:33:05;;;;;;;7.90;3.85;;;;;;;8.26;79.61;101606.09;5060515;28;20475;-90
2023/01/30 06:35:31;;;;;;;9.63;3.33;;;;;;;8.18;79.19;101590.41;5072254;28;20085;-90
2023/01/30 06:37:56;;;;;;;14.40;3.67;;;;;;;8.18;78.89;101590.41;5071532;28;20036;-90
2023/01/30 06:40:21;;;;;;;10.55;2.70;;;;;;;8.16;78.80;101610.66;5089923;28;20060;-90
2023/01/30 06:42:48;;;;;;;7.80;2.65;;;;;;;8.12;79.01;101613.38;5072739;28;20032;-90
2023/01/30 06:45:15;;;;;;;11.90;3.42;;;;;;;7.99;78.61;101596.03;5044383;28;20068;-90
2023/01/30 06:47:48;;;;;;;7.72;3.03;;;;;;;8.19;77.73;101609.72;5062990;28;20032;-90
2023/01/30 06:50:15;;;;;;;8.45;3.03;;;;;;;8.15;77.82;101611.53;5071791;28;20032;-90
2023/01/30 06:52:48;;;;;;;14.35;4.45;;;;;;;8.09;78.11;101610.78;5065674;28;20028;-90
2023/01/30 06:55:16;;;;;;;13.60;2.97;;;;;;;7.89;77.78;101605.88;5061062;28;20383;-91
2023/01/30 06:57:42;;;;;;;10.20;2.60;;;;;;;7.84;77.90;101594.53;5066204;28;20488;-91
2023/01/30 07:00:13;;;;;;;11.40;3.13;;;;;;;7.75;77.93;101576.28;5067513;28;20120;-90
2023/01/30 07:02:38;;;;;;;8.88;2.47;;;;;;;7.85;77.13;101588.38;5083498;28;20036;-90
2023/01/30 07:05:05;;;;;;;10.05;2.75;;;;;;;7.61;77.63;101580.00;5066333;28;20676;-90
2023/01/30 07:07:31;;;;;;;12.32;2.30;;;;;;;7.54;77.43;101598.53;5087575;28;20139;-90
2023/01/30 07:09:57;;;;;;;9.90;2.65;;;;;;;7.48;77.36;101582.84;5069499;28;20034;-90
2023/01/30 07:12:23;;;;;;;10.40;2.75;;;;;;;7.37;77.44;101573.34;5087964;28;20035;-90
2023/01/30 07:14:50;;;;;;;12.65;3.03;;;;;;;7.39;76.44;101594.38;5085836;28;20514;-90
2023/01/30 07:17:16;;;;;;;6.65;2.00;;;;;;;7.38;76.28;101598.75;5062731;28;20475;-90
2023/01/30 07:19:42;;;;;;;12.50;2.40;;;;;;;7.42;75.99;101602.22;5086147;28;20020;-90
2023/01/30 07:22:07;;;;;;;14.18;3.33;;;;;;;7.46;75.25;101603.91;5068651;28;20496;-90
2023/01/30 07:24:32;;;;;;;13.10;2.60;;;;;;;7.44;75.49;101605.69;5079822;28;20036;-90
2023/01/30 07:26:57;;;;;;;13.40;2.35;;;;;;;7.44;75.34;101612.72;5061571;28;20036;-90
2023/01/30 07:29:23;;;;;;;10.88;2.53;;;;;;;7.33;75.29;101605.00;5058562;28;21507;-90
2023/01/30 07:31:48;;;;;;;14.48;2.55;;;;;;;7.43;75.35;101621.50;5083061;28;20020;-90
2023/01/30 07:34:13;;;;;;;14.35;2.17;;;;;;;7.30;74.96;101598.00;5072033;28;20431;-89
2023/01/30 07:36:38;;;;;;;16.23;3.20;;;;;;;7.31;75.09;101627.78;5067792;28;20032;-90
2023/01/30 07:39:04;;;;;;;17.55;2.80;;;;;;;7.33;75.24;101639.19;5071276;28;20424;-90
2023/01/30 07:41:30;;;;;;;12.00;2.42;;;;;;;7.31;75.40;101639.19;5081196;28;20031;-90
2023/01/30 07:43:55;;;;;;;8.60;2.20;;;;;;;7.24;74.88;101631.41;5069878;28;20036;-90
2023/01/30 07:46:21;;;;;;;15.05;2.65;;;;;;;7.26;74.98;101635.75;5064550;28;20606;-89
2023/01/30 07:48:46;;;;;;;10.80;2.15;;;;;;;7.29;74.84;101626.97;5058240;28;20036;-90
2023/01/30 07:51:12;;;;;;;14.95;2.75;;;;;;;7.26;75.23;101619.97;5082051;28;20474;-90
2023/01/30 07:53:40;;;;;;;11.80;2.83;;;;;;;7.30;74.98;101649.75;5061556;28;20750;-89
2023/01/30 07:56:09;;;;;;;11.93;2.47;;;;;;;7.27;74.38;101626.09;5072123;28;20026;-90
2023/01/30 07:58:35;;;;;;;12.35;2.28;;;;;;;7.31;74.42;101627.78;5061453;28;20031;-90
2023/01/30 08:01:00;;;;;;;21.38;3.13;;;;;;;7.38;74.32;101645.25;5061254;28;20036;-90
2023/01/30 08:03:25;;;;;;;10.90;2.55;;;;;;;7.39;74.40;101641.72;5087117;28;20514;-90
2023/01/30 08:05:52;;;;;;;10.77;1.95;;;;;;;7.31;74.23;101620.78;5060023;28;20028;-90
2023/01/30 08:08:17;;;;;;;13.77;2.80;;;;;;;7.33;73.95;101639.19;5065067;28;20025;-89
2023/01/30 08:10:43;;;;;;;13.60;2.50;;;;;;;7.27;73.64;101620.84;5063683;28;20023;-91
2023/01/30 08:13:08;;;;;;;6.30;1.73;;;;;;;7.33;73.24;101632.16;5081200;28;20089;-90
2023/01/30 08:15:33;;;;;;;12.38;2.03;;;;;;;7.41;73.16;101639.91;5067836;28;20467;-90
2023/01/30 08:17:59;;;;;;;16.63;2.35;;;;;;;7.43;72.86;101650.44;5062291;28;20027;-90
2023/01/30 08:20:26;;;;;;;16.38;2.75;;;;;;;7.45;72.52;101644.25;5062549;28;20484;-90
2023/01/30 08:22:51;;;;;;;14.48;2.58;;;;;;;7.52;72.04;101652.94;5086632;28;20031;-90
2023/01/30 08:25:17;;;;;;;14.32;2.28;;;;;;;7.84;70.96;101665.63;5068698;28;20421;-89
2023/01/30 08:27:42;;;;;;;17.08;2.88;;;;;;;8.28;68.97;101669.28;5082596;28;20032;-90
2023/01/30 08:30:09;;;;;;;14.65;1.95;;;;;;;8.71;68.22;101687.84;5083701;28;20456;-91
2023/01/30 08:32:35;;;;;;;8.73;2.15;;;;;;;8.79;66.27;101659.56;5082578;28;20032;-90
2023/01/30 08:35:00;;;;;;;14.93;3.10;;;;;;;9.01;65.93;101669.69;5081817;28;20106;-90
2023/01/30 08:37:25;;;;;;;17.92;3.10;;;;;;;9.15;64.90;101671.16;5068016;28;20076;-90
2023/01/30 08:39:50;;;;;;;9.15;1.63;;;;;;;9.39;63.70;101664.47;5084078;28;20024;-89
2023/01/30 08:42:16;;;;;;;17.52;2.28;;;;;;;9.94;63.15;101655.28;5068794;28;20034;-90
2023/01/30 08:44:41;;;;;;;10.73;2.00;;;;;;;10.58;60.90;101662.47;5081678;28;20081;-90
2023/01/30 08:47:06;;;;;;;19.25;3.45;;;;;;;11.21;59.38;101680.09;5065517;28;20028;-90
2023/01/30 08:49:32;;;;;;;12.57;2.88;;;;;;;11.56;57.45;101678.16;5067601;28;20479;-91
2023/01/30 08:51:57;;;;;;;10.32;2.45;;;;;;;11.59;56.83;101655.09;5066616;28;20024;-90
2023/01/30 08:54:22;;;;;;;11.27;2.92;;;;;;;12.01;56.05;101662.63;5086009;28;20136;-91
2023/01/30 08:56:47;;;;;;;19.13;3.38;;;;;;;12.07;54.98;101651.81;5056873;28;20108;-90
2023/01/30 08:59:13;;;;;;;12.25;2.15;;;;;;;12.31;54.23;101681.06;5060889;28;20031;-90
2023/01/30 09:01:38;;;;;;;12.57;2.20;;;;;;;12.38;54.27;101674.66;5061814;28;20119;-90
2023/01/30 09:04:03;;;;;;;11.25;1.98;;;;;;;12.58;53.54;101681.91;5087531;28;20523;-90
2023/01/30 09:06:29;;;;;;;15.25;2.67;;;;;;;12.99;52.76;101704.31;5077824;28;20399;-90
2023/01/30 09:08:54;;;;;;;11.55;2.38;;;;;;;13.14;52.67;101689.59;5084921;28;20488;-90
2023/01/30 09:11:19;;;;;;;14.68;2.50;;;;;;;13.19;51.58;101687.63;5063308;28;20032;-91
2023/01/30 09:13:45;;;;;;;5.63;1.75;;;;;;;13.07;52.75;101709.34;5067159;28;20031;-91
2023/01/30 09:16:11;;;;;;;12.70;2.50;;;;;;;12.81;51.49;101702.31;5076735;28;20399;-91
2023/01/30 09:18:41;;;;;;;12.02;2.33;;;;;;;12.94;51.66;101714.22;5082455;28;20053;-90
2023/01/30 09:21:07;;;;;;;14.93;2.95;;;;;;;12.90;50.90;101710.81;5077823;28;20032;-90
2023/01/30 09:23:32;;;;;;;10.30;2.38;;;;;;;12.90;51.84;101717.91;5080710;28;20047;-90
2023/01/30 09:25:59;;;;;;;11.65;1.98;;;;;;;13.33;51.27;101721.69;5064718;28;20379;-91
2023/01/30 09:28:24;;;;;;;12.15;1.70;;;;;;;13.53;50.05;101709.38;5062867;28;20395;-90
2023/01/30 09:30:49;;;;;;;8.63;2.13;;;;;;;13.99;48.67;101712.03;5081113;28;20028;-90
2023/01/30 09:33:19;;;;;;;9.27;2.00;;;;;;;14.59;48.83;101713.06;5065104;28;20024;-90
2023/01/30 09:35:46;;;;;;;8.82;2.45;;;;;;;14.71;46.28;101712.56;5086673;28;20027;-90
2023/01/30 09:38:11;;;;;;;10.75;2.05;;;;;;;15.14;46.06;101729.28;5064250;28;20168;-90
2023/01/30 09:40:46;;;;;;;9.55;2.25;;;;;;;15.43;45.74;101735.94;5065997;28;20115;-90
2023/01/30 09:43:56;;;;;;;11.00;2.58;;;;;;;15.82;45.28;101749.25;5081038;28;20092;-90
2023/01/30 09:46:38;;;;;;;10.80;2.17;;;;;;;15.97;45.77;101738.78;5061115;28;20056;-91
2023/01/30 09:49:24;;;;;;;7.22;1.65;;;;;;;15.94;44.15;101736.25;5067395;28;20031;-90
2023/01/30 09:52:02;;;;;;;8.90;2.05;;;;;;;13.99;47.29;101739.47;5071758;28;20783;-90
2023/01/30 09:54:38;;;;;;;8.68;1.88;;;;;;;13.67;50.03;101726.59;5067375;28;20032;-90
2023/01/30 09:57:06;;;;;;;9.18;1.95;;;;;;;13.72;49.17;101745.88;5069939;28;20027;-90
2023/01/30 09:59:42;;;;;;;12.50;2.38;;;;;;;12.99;50.45;101731.72;5087380;28;20084;-90
2023/01/30 10:02:08;;;;;;;11.07;2.28;;;;;;;12.71;51.40;101758.38;5076444;28;20028;-89
2023/01/30 10:04:38;;;;;;;9.90;2.45;;;;;;;12.24;52.07;101759.94;5067888;28;20466;-90
2023/01/30 10:07:28;;;;;;;14.20;2.30;;;;;;;11.99;52.88;101765.19;5075164;28;20028;-89
2023/01/30 10:10:34;;;;;;;13.10;3.10;;;;;;;11.59;54.50;101749.59;5059972;28;20082;-90
2023/01/30 10:13:05;;;;;;;12.38;2.15;;;;;;;11.23;54.99;101762.97;5070491;28;20031;-91
2023/01/30 10:15:52;;;;;;;12.80;2.45;;;;;;;10.95;55.63;101762.84;5086535;28;20638;-90
2023/01/30 10:18:59;;;;;;;12.80;3.17;;;;;;;10.68;56.51;101757.41;5061753;28;20502;-90
2023/01/30 10:21:43;;;;;;;14.10;2.33;;;;;;;10.48;56.89;101773.75;5068957;28;20483;-90
2023/01/30 10:24:26;;;;;;;10.18;2.05;;;;;;;10.36;57.60;101768.78;5061500;28;20031;-90
2023/01/30 10:26:52;;;;;;;10.50;2.42;;;;;;;10.11;58.30;101768.44;5071172;28;20119;-90
2023/01/30 10:29:27;;;;;;;10.70;2.70;;;;;;;9.97;58.27;101752.06;5088072;28;20153;-91
2023/01/30 10:32:16;;;;;;;6.38;1.48;;;;;;;9.91;59.46;101773.34;5080564;28;20558;-90
2023/01/30 10:34:47;;;;;;;9.00;2.13;;;;;;;9.79;59.41;101774.50;5087013;28;20028;-90
2023/01/30 10:37:41;;;;;;;10.88;2.40;;;;;;;9.82;59.14;101798.16;5051303;28;20035;-90
2023/01/30 10:40:13;;;;;;;9.40;1.70;;;;;;;9.70;58.81;101756.22;5067480;28;20040;-91
2023/01/30 10:43:08;;;;;;;10.20;1.90;;;;;;;9.57;60.01;101787.28;5063117;28;20039;-90
2023/01/30 10:46:00;;;;;;;13.45;2.13;;;;;;;9.72;60.02;101801.91;5079965;28;20052;-90
2023/01/30 10:48:50;;;;;;;13.20;2.47;;;;;;;9.61;59.98;101802.16;5076996;28;20040;-91
2023/01/30 10:51:21;;;;;;;12.57;1.80;;;;;;;9.63;59.79;101816.19;5070003;28;20068;-90
2023/01/30 10:54:00;;;;;;;7.07;1.70;;;;;;;9.44;59.41;101786.66;5056599;28;20060;-90
2023/01/30 10:57:01;;;;;;;9.43;2.25;;;;;;;9.58;59.22;101804.84;5083059;28;20036;-91
2023/01/30 11:00:02;;;;;;;11.75;2.20;;;;;;;9.61;59.56;101798.66;5079952;28;20032;-91
2023/01/30 11:02:39;;;;;;;7.32;2.15;;;;;;;9.59;59.37;101795.16;5079969;28;20471;-90
2023/01/30 11:05:17;;;;;;;13.48;2.28;;;;;;;9.62;59.25;101813.56;5061586;28;20798;-90
2023/01/30 11:07:45;;;;;;;8.07;1.83;;;;;;;9.49;58.39;101791.84;5081145;28;20024;-90
2023/01/30 11:10:20;;;;;;;10.00;1.88;;;;;;;9.54;59.20;101821.66;5079982;28;20510;-90
2023/01/30 11:12:57;;;;;;;15.20;2.42;;;;;;;9.48;58.15;101805.06;5070846;28;20024;-90
2023/01/30 11:15:24;;;;;;;12.07;1.90;;;;;;;9.49;58.56;101802.38;5056051;28;20028;-90
2023/01/30 11:17:50;;;;;;;8.52;1.85;;;;;;;9.57;58.83;101813.66;5061181;28;20443;-91
2023/01/30 11:20:18;;;;;;;10.85;2.03;;;;;;;9.52;57.80;101804.13;5062037;28;20083;-91
2023/01/30 11:23:04;;;;;;;14.27;2.30;;;;;;;9.52;58.15;101818.19;5070715;28;20028;-90
2023/01/30 11:25:29;;;;;;;10.93;1.80;;;;;;;9.45;58.34;101791.00;5062949;28;20031;-90
2023/01/30 11:28:00;;;;;;;9.57;2.45;;;;;;;9.64;57.37;101804.72;5063770;28;20084;-90
2023/01/30 11:30:33;;;;;;;10.32;1.77;;;;;;;9.75;57.80;101783.38;5084140;28;20336;-90
2023/01/30 11:33:11;;;;;;;12.32;2.00;;;;;;;9.78;57.87;101798.28;5078985;28;20043;-90
2023/01/30 11:35:50;;;;;;;14.13;2.22;;;;;;;9.70;56.82;101788.75;5070991;28;20127;-90
2023/01/30 11:38:25;;;;;;;12.98;2.58;;;;;;;9.74;57.64;101799.22;5084740;28;20407;-90